Time;durP1;ratioP1;P1;durP2;ratioP2;P2;SDS_P1;SDS_P2;PMS_P1;PMS_P2;Temp;Humidity;BMP_temperature;BMP_pressure;BME280_temperature;BME280_humidity;BME280_pressure;Samples;Min_cycle;Max_cycle;Signal;HPM_P1;HPM_P2
2021/11/25 00:00:22;;;;;;;6.03;3.60;;;6.10;88.10;;;;;;5035579;28;20208;-77
2021/11/25 00:02:48;;;;;;;3.07;2.87;;;6.10;88.10;;;;;;5018606;28;20180;-76
2021/11/25 00:05:14;;;;;;;5.17;2.97;;;6.10;88.30;;;;;;5025693;28;20180;-77
2021/11/25 00:07:40;;;;;;;4.33;3.00;;;6.10;88.20;;;;;;5031137;28;20270;-77
2021/11/25 00:10:08;;;;;;;2.80;2.60;;;6.10;87.90;;;;;;5030145;28;20188;-76
2021/11/25 00:12:34;;;;;;;3.30;2.97;;;6.10;87.90;;;;;;5031582;28;20191;-76
2021/11/25 00:14:59;;;;;;;4.53;3.53;;;6.10;88.10;;;;;;5031348;28;20185;-76
2021/11/25 00:17:25;;;;;;;4.30;3.43;;;6.10;88.20;;;;;;5033181;28;20259;-75
2021/11/25 00:19:51;;;;;;;3.60;3.33;;;6.10;87.80;;;;;;5028918;28;20694;-75
2021/11/25 00:22:17;;;;;;;3.50;3.20;;;6.10;87.80;;;;;;5032126;28;20180;-75
2021/11/25 00:24:42;;;;;;;4.97;3.40;;;6.10;87.90;;;;;;5025827;28;20184;-77
2021/11/25 00:27:08;;;;;;;4.00;3.43;;;6.10;88.10;;;;;;5034249;28;20272;-77
2021/11/25 00:29:34;;;;;;;6.10;3.87;;;6.10;87.90;;;;;;5035047;28;20578;-76
2021/11/25 00:31:59;;;;;;;3.43;3.23;;;6.10;87.90;;;;;;5025319;28;20688;-76
2021/11/25 00:34:25;;;;;;;6.27;3.83;;;6.10;87.90;;;;;;5030884;28;20785;-76
2021/11/25 00:36:51;;;;;;;3.97;3.33;;;6.10;87.90;;;;;;5036566;28;20250;-76
2021/11/25 00:39:17;;;;;;;3.33;2.23;;;6.10;88.10;;;;;;5026746;28;20216;-76
2021/11/25 00:41:47;;;;;;;5.33;3.60;;;6.10;88.10;;;;;;5029257;28;20202;-76
2021/11/25 00:44:12;;;;;;;3.43;3.13;;;6.20;88.10;;;;;;5032733;28;20319;-77
2021/11/25 00:46:38;;;;;;;3.87;2.63;;;6.20;88.10;;;;;;5031857;28;20938;-75
2021/11/25 00:49:05;;;;;;;6.30;3.07;;;6.20;88.10;;;;;;5029537;28;20192;-75
2021/11/25 00:51:31;;;;;;;2.67;2.47;;;6.20;88.10;;;;;;5033112;28;20191;-76
2021/11/25 00:53:56;;;;;;;4.90;4.07;;;6.20;88.10;;;;;;5029640;28;20176;-75
2021/11/25 00:56:22;;;;;;;2.60;2.30;;;6.20;87.90;;;;;;5028603;28;20326;-76
2021/11/25 00:58:48;;;;;;;2.73;2.30;;;6.20;87.90;;;;;;5028515;28;20200;-76
2021/11/25 01:01:14;;;;;;;4.13;2.43;;;6.20;87.90;;;;;;5029711;28;20234;-77
2021/11/25 01:03:40;;;;;;;3.30;2.93;;;6.20;88.10;;;;;;5028117;28;20187;-76
2021/11/25 01:06:06;;;;;;;2.67;2.53;;;6.10;88.10;;;;;;5035106;28;20715;-76
2021/11/25 01:08:32;;;;;;;3.93;2.53;;;6.10;88.20;;;;;;5029338;28;20188;-76
2021/11/25 01:10:58;;;;;;;4.17;2.57;;;6.10;88.20;;;;;;5029352;28;20187;-76
2021/11/25 01:13:24;;;;;;;4.50;3.23;;;6.10;88.30;;;;;;5032156;28;20180;-76
2021/11/25 01:15:49;;;;;;;2.90;2.70;;;6.10;88.30;;;;;;5019159;28;21086;-76
2021/11/25 01:18:17;;;;;;;4.33;2.00;;;6.10;88.40;;;;;;5031278;28;20574;-77
2021/11/25 01:20:46;;;;;;;3.10;2.53;;;6.10;88.50;;;;;;5026122;28;20222;-75
2021/11/25 01:23:15;;;;;;;3.70;2.40;;;6.00;88.60;;;;;;5032285;28;20188;-76
2021/11/25 01:25:41;;;;;;;3.07;2.73;;;6.00;88.70;;;;;;5036366;28;20934;-75
2021/11/25 01:28:12;;;;;;;2.70;2.47;;;6.00;88.70;;;;;;5027914;28;20180;-76
2021/11/25 01:30:40;;;;;;;2.70;2.30;;;6.00;88.80;;;;;;5024027;28;20192;-76
2021/11/25 01:33:06;;;;;;;3.00;2.50;;;6.00;88.80;;;;;;5032464;28;20181;-75
2021/11/25 01:35:32;;;;;;;3.60;2.37;;;6.00;88.90;;;;;;5028413;28;20187;-75
2021/11/25 01:37:57;;;;;;;2.23;2.13;;;6.00;88.90;;;;;;5032335;28;20180;-75
2021/11/25 01:40:23;;;;;;;3.67;2.87;;;6.00;88.90;;;;;;5033952;28;20220;-75
2021/11/25 01:42:49;;;;;;;3.03;2.73;;;5.90;88.80;;;;;;5033326;28;20570;-75
2021/11/25 01:45:16;;;;;;;3.00;2.63;;;5.90;89.00;;;;;;5036488;28;20258;-75
2021/11/25 01:47:47;;;;;;;2.23;1.83;;;5.80;89.00;;;;;;5028015;28;20184;-75
2021/11/25 01:50:14;;;;;;;4.83;3.17;;;5.80;89.00;;;;;;5029902;28;20879;-76
2021/11/25 01:52:41;;;;;;;3.33;2.77;;;5.80;89.10;;;;;;5027707;28;20675;-76
2021/11/25 01:55:07;;;;;;;2.60;2.13;;;5.80;89.20;;;;;;5030079;28;20267;-75
2021/11/25 01:57:33;;;;;;;4.43;2.53;;;5.70;89.20;;;;;;5026774;28;20206;-75
2021/11/25 01:59:59;;;;;;;3.30;2.80;;;5.70;89.30;;;;;;5034714;28;20212;-75
2021/11/25 02:02:25;;;;;;;3.63;2.80;;;5.70;89.40;;;;;;5026425;28;20188;-75
2021/11/25 02:04:51;;;;;;;4.87;3.37;;;5.70;89.40;;;;;;5028979;28;20212;-75
2021/11/25 02:07:17;;;;;;;3.57;3.10;;;5.60;89.60;;;;;;5030163;28;20216;-75
2021/11/25 02:09:44;;;;;;;2.67;2.47;;;5.50;89.60;;;;;;5036760;28;20233;-75
2021/11/25 02:12:10;;;;;;;3.00;2.70;;;5.50;89.70;;;;;;5034610;28;20184;-75
2021/11/25 02:14:38;;;;;;;5.40;3.30;;;5.50;89.80;;;;;;5031220;28;20243;-76
2021/11/25 02:17:04;;;;;;;5.70;3.23;;;5.50;89.80;;;;;;5030324;28;20199;-75
2021/11/25 02:19:30;;;;;;;2.87;2.20;;;5.50;89.80;;;;;;5037276;28;20289;-75
2021/11/25 02:21:56;;;;;;;3.83;3.53;;;5.50;89.80;;;;;;5038906;28;20211;-75
2021/11/25 02:24:22;;;;;;;3.73;3.03;;;5.50;89.80;;;;;;5030144;28;20239;-75
2021/11/25 02:26:47;;;;;;;4.30;2.90;;;5.50;89.80;;;;;;5030931;28;20204;-75
2021/11/25 02:29:13;;;;;;;3.87;2.93;;;5.50;89.70;;;;;;5037489;28;20282;-75
2021/11/25 02:31:40;;;;;;;5.47;3.70;;;5.50;89.80;;;;;;5037913;28;20188;-76
2021/11/25 02:34:06;;;;;;;3.30;3.10;;;5.60;89.70;;;;;;5034706;28;20176;-75
2021/11/25 02:36:32;;;;;;;3.30;2.87;;;5.60;89.70;;;;;;5034786;28;20696;-75
2021/11/25 02:38:59;;;;;;;5.50;3.03;;;5.60;89.70;;;;;;5037975;28;20203;-75
2021/11/25 02:41:25;;;;;;;7.23;3.90;;;5.60;89.60;;;;;;5038492;28;20723;-75
2021/11/25 02:43:53;;;;;;;4.57;3.17;;;5.60;89.60;;;;;;5022347;28;20180;-75
2021/11/25 02:46:19;;;;;;;6.33;3.70;;;5.60;89.60;;;;;;5025504;28;20591;-75
2021/11/25 02:48:46;;;;;;;5.60;3.70;;;5.60;89.60;;;;;;5033810;28;20180;-75
2021/11/25 02:51:23;;;;;;;5.60;4.47;;;5.60;89.60;;;;;;5025273;28;20176;-75
2021/11/25 02:53:50;;;;;;;6.20;4.13;;;5.60;89.60;;;;;;5033110;28;20190;-75
2021/11/25 02:56:18;;;;;;;5.87;3.87;;;5.60;89.60;;;;;;5035083;28;20266;-75
2021/11/25 02:58:46;;;;;;;4.47;3.87;;;5.50;89.60;;;;;;5029657;28;20200;-75
2021/11/25 03:01:21;;;;;;;5.67;3.57;;;5.50;89.70;;;;;;5027011;28;20208;-75
2021/11/25 03:03:47;;;;;;;4.23;3.00;;;5.50;89.60;;;;;;5038067;28;20257;-74
2021/11/25 03:06:15;;;;;;;6.50;4.07;;;5.50;89.60;;;;;;5033880;28;20780;-75
2021/11/25 03:08:42;;;;;;;4.27;3.23;;;5.50;89.60;;;;;;5023329;28;20259;-75
2021/11/25 03:11:10;;;;;;;5.90;3.80;;;5.50;89.70;;;;;;5029143;28;20208;-76
2021/11/25 03:13:39;;;;;;;7.47;4.90;;;5.50;89.60;;;;;;5036101;28;20545;-76
2021/11/25 03:16:06;;;;;;;3.37;3.07;;;5.50;89.60;;;;;;5032205;28;20173;-76
2021/11/25 03:18:32;;;;;;;5.00;4.03;;;5.60;89.60;;;;;;5028888;28;20181;-76
2021/11/25 03:20:58;;;;;;;4.50;3.43;;;5.50;89.60;;;;;;5023735;28;20224;-76
2021/11/25 03:23:29;;;;;;;4.27;3.47;;;5.60;89.60;;;;;;5038578;28;20246;-77
2021/11/25 03:25:56;;;;;;;3.97;3.67;;;5.60;89.50;;;;;;5035134;28;20184;-75
2021/11/25 03:28:23;;;;;;;6.50;4.80;;;5.60;89.50;;;;;;5031084;28;20184;-75
2021/11/25 03:30:56;;;;;;;2.93;2.70;;;5.60;89.40;;;;;;5028783;28;20728;-75
2021/11/25 03:33:27;;;;;;;3.50;3.20;;;5.60;89.40;;;;;;5029874;28;20188;-75
2021/11/25 03:35:55;;;;;;;7.30;4.40;;;5.60;89.40;;;;;;5029622;28;20279;-76
2021/11/25 03:38:21;;;;;;;6.47;4.40;;;5.70;89.30;;;;;;5029788;28;20188;-76
2021/11/25 03:40:48;;;;;;;6.33;3.63;;;5.70;89.30;;;;;;5030208;28;20336;-75
2021/11/25 03:43:14;;;;;;;4.50;3.37;;;5.70;89.20;;;;;;5032656;28;20567;-75
2021/11/25 03:45:40;;;;;;;6.10;3.57;;;5.70;89.20;;;;;;5026036;28;20188;-75
2021/11/25 03:48:06;;;;;;;3.07;2.80;;;5.70;89.20;;;;;;5031822;28;20563;-76
2021/11/25 03:50:32;;;;;;;8.27;3.63;;;5.70;89.20;;;;;;5033186;28;20673;-75
2021/11/25 03:52:57;;;;;;;3.93;3.47;;;5.70;89.10;;;;;;5030178;28;20245;-75
2021/11/25 03:55:23;;;;;;;6.70;4.57;;;5.70;89.10;;;;;;5029050;28;20226;-76
2021/11/25 03:57:49;;;;;;;3.60;3.33;;;5.70;89.10;;;;;;5026469;28;20270;-74
2021/11/25 04:00:17;;;;;;;4.93;4.33;;;5.70;89.00;;;;;;5032925;28;20219;-75
2021/11/25 04:02:45;;;;;;;6.20;4.03;;;5.70;89.00;;;;;;5034213;28;20245;-75
2021/11/25 04:05:12;;;;;;;3.33;3.10;;;5.70;89.00;;;;;;5028631;28;20250;-75
2021/11/25 04:07:38;;;;;;;4.57;3.30;;;5.70;89.00;;;;;;5027686;28;20229;-75
2021/11/25 04:10:06;;;;;;;6.63;3.70;;;5.70;89.00;;;;;;5027747;28;20223;-75
2021/11/25 04:12:32;;;;;;;4.43;3.33;;;5.70;89.00;;;;;;5049668;28;20610;-75
2021/11/25 04:14:58;;;;;;;4.13;3.77;;;5.70;89.00;;;;;;5031596;28;20184;-75
2021/11/25 04:17:24;;;;;;;3.90;3.67;;;5.70;89.00;;;;;;5034489;28;20665;-77
2021/11/25 04:19:51;;;;;;;7.70;3.93;;;5.70;89.00;;;;;;5030108;28;20211;-75
2021/11/25 04:22:20;;;;;;;4.57;3.10;;;5.60;89.00;;;;;;5031498;28;20204;-76
2021/11/25 04:24:47;;;;;;;7.23;4.43;;;5.60;89.00;;;;;;5027193;28;20191;-76
2021/11/25 04:27:14;;;;;;;5.53;4.03;;;5.60;89.00;;;;;;5033695;28;20316;-75
2021/11/25 04:29:43;;;;;;;5.23;4.10;;;5.60;88.90;;;;;;5024893;28;20279;-76
2021/11/25 04:37:37;;;;;;;6.83;3.97;;;5.50;89.00;;;;;;5034738;28;20207;-76
2021/11/25 04:40:04;;;;;;;4.03;2.87;;;5.50;89.20;;;;;;5026575;28;20219;-76
2021/11/25 04:42:29;;;;;;;5.10;3.27;;;5.50;89.30;;;;;;5032357;28;20216;-77
2021/11/25 04:44:55;;;;;;;5.77;3.90;;;5.50;89.20;;;;;;5033248;28;20704;-76
2021/11/25 04:47:21;;;;;;;4.77;3.40;;;5.40;89.20;;;;;;5022720;28;20188;-76
2021/11/25 04:49:47;;;;;;;6.40;3.13;;;5.40;89.30;;;;;;5029591;28;20230;-76
2021/11/25 04:52:12;;;;;;;6.10;3.67;;;5.40;89.20;;;;;;5025463;28;20270;-76
2021/11/25 04:54:38;;;;;;;4.13;3.00;;;5.40;89.20;;;;;;5033837;28;20568;-76
2021/11/25 04:57:05;;;;;;;4.50;3.17;;;5.40;89.30;;;;;;5035056;28;20179;-77
2021/11/25 04:59:31;;;;;;;5.07;3.20;;;5.40;89.30;;;;;;5032824;28;20199;-76
2021/11/25 05:01:57;;;;;;;5.40;3.27;;;5.40;89.20;;;;;;5028804;28;20181;-76
2021/11/25 05:04:22;;;;;;;3.63;3.30;;;5.40;89.20;;;;;;5031176;28;20195;-76
2021/11/25 05:06:48;;;;;;;4.63;3.67;;;5.40;89.30;;;;;;5029096;28;20207;-76
2021/11/25 05:09:14;;;;;;;3.90;3.30;;;5.40;89.40;;;;;;5031965;28;20200;-76
2021/11/25 05:11:40;;;;;;;4.93;3.73;;;5.40;89.40;;;;;;5033518;28;20185;-76
2021/11/25 05:14:05;;;;;;;5.50;4.10;;;5.40;89.40;;;;;;5034612;28;20179;-76
2021/11/25 05:16:31;;;;;;;6.63;4.27;;;5.40;89.50;;;;;;5031459;28;20578;-76
2021/11/25 05:18:57;;;;;;;4.67;4.20;;;5.30;89.70;;;;;;5051360;28;20749;-76
2021/11/25 05:21:23;;;;;;;3.47;3.17;;;5.30;89.80;;;;;;5046001;28;20255;-77
2021/11/25 05:23:49;;;;;;;4.57;3.60;;;5.30;90.00;;;;;;5049564;28;20606;-76
2021/11/25 05:26:14;;;;;;;4.07;3.73;;;5.20;90.00;;;;;;5052248;28;20186;-76
2021/11/25 05:28:40;;;;;;;5.20;3.80;;;5.30;90.00;;;;;;5057033;28;20244;-76
2021/11/25 05:31:06;;;;;;;3.50;3.13;;;5.30;90.10;;;;;;5053165;28;20680;-76
2021/11/25 05:33:31;;;;;;;6.20;3.83;;;5.30;90.10;;;;;;5052259;28;20187;-75
2021/11/25 05:35:57;;;;;;;5.17;3.17;;;5.40;90.10;;;;;;5056845;28;20187;-76
2021/11/25 05:38:23;;;;;;;4.03;3.63;;;5.40;90.10;;;;;;5062025;28;20176;-76
2021/11/25 05:40:49;;;;;;;4.33;3.67;;;5.40;90.00;;;;;;5053814;28;20696;-80
2021/11/25 05:43:14;;;;;;;4.17;3.10;;;5.50;89.90;;;;;;5055134;28;20224;-81
2021/11/25 05:45:40;;;;;;;4.87;3.50;;;5.50;89.70;;;;;;5054455;28;20180;-80
2021/11/25 05:48:06;;;;;;;3.37;3.10;;;5.50;89.70;;;;;;5049087;28;20260;-81
2021/11/25 05:50:32;;;;;;;3.27;2.97;;;5.50;89.70;;;;;;5050830;28;20188;-81
2021/11/25 05:52:58;;;;;;;3.17;2.83;;;5.50;89.80;;;;;;5049933;28;20274;-80
2021/11/25 05:55:29;;;;;;;4.90;3.60;;;5.50;89.90;;;;;;5049860;28;20657;-81
2021/11/25 05:57:55;;;;;;;3.33;3.10;;;5.50;89.80;;;;;;5057139;28;20218;-81
2021/11/25 06:00:21;;;;;;;4.37;3.00;;;5.60;89.80;;;;;;5051748;28;20754;-80
2021/11/25 06:02:48;;;;;;;3.23;2.93;;;5.60;89.70;;;;;;5049719;28;20237;-80
2021/11/25 06:05:16;;;;;;;6.23;3.47;;;5.70;89.70;;;;;;5051687;28;20195;-74
2021/11/25 06:07:45;;;;;;;7.63;3.80;;;5.70;89.60;;;;;;5049485;28;20300;-76
2021/11/25 06:10:13;;;;;;;4.80;3.07;;;5.80;89.30;;;;;;5047968;28;20226;-75
2021/11/25 06:12:39;;;;;;;4.40;2.80;;;5.80;89.30;;;;;;5053407;28;20276;-74
2021/11/25 06:15:05;;;;;;;4.70;3.07;;;5.80;89.30;;;;;;5050099;28;20188;-76
2021/11/25 06:17:31;;;;;;;5.10;3.27;;;5.90;89.20;;;;;;5048182;28;20677;-75
2021/11/25 06:19:57;;;;;;;4.40;3.47;;;5.90;89.30;;;;;;5057017;28;20275;-75
2021/11/25 06:22:24;;;;;;;4.60;3.37;;;6.00;89.40;;;;;;5048001;28;20179;-75
2021/11/25 06:24:50;;;;;;;4.10;3.70;;;6.10;89.40;;;;;;5051792;28;20614;-75
2021/11/25 06:27:16;;;;;;;4.17;3.53;;;6.20;89.40;;;;;;5051293;28;20664;-75
2021/11/25 06:29:42;;;;;;;4.00;3.67;;;6.30;89.20;;;;;;5051902;28;20302;-78
2021/11/25 06:32:08;;;;;;;4.77;3.37;;;6.50;89.30;;;;;;5054312;28;20789;-77
2021/11/25 06:34:34;;;;;;;4.57;4.03;;;6.80;87.90;;;;;;5052013;28;20187;-78
2021/11/25 06:37:00;;;;;;;3.57;2.83;;;7.10;87.90;;;;;;5048890;28;20186;-77
2021/11/25 06:39:26;;;;;;;3.67;3.37;;;;;;;;;;5047814;28;20261;-78
2021/11/25 06:41:52;;;;;;;5.27;3.43;;;7.80;87.60;;;;;;5049972;28;21365;-76
2021/11/25 06:44:18;;;;;;;4.83;4.33;;;8.10;86.70;;;;;;5047647;28;20180;-76
2021/11/25 06:46:43;;;;;;;8.23;3.80;;;8.50;85.20;;;;;;5049487;28;20238;-76
2021/11/25 06:49:09;;;;;;;4.73;3.90;;;8.90;84.70;;;;;;5049262;28;20215;-75
2021/11/25 06:51:36;;;;;;;8.70;4.47;;;9.40;84.70;;;;;;5051139;28;20618;-75
2021/11/25 06:54:02;;;;;;;8.30;4.50;;;9.80;83.20;;;;;;5049475;28;20671;-76
2021/11/25 06:56:27;;;;;;;6.10;4.33;;;10.30;82.70;;;;;;5052948;28;20174;-77
2021/11/25 06:58:55;;;;;;;6.67;4.30;;;10.80;82.00;;;;;;5050884;28;20637;-77
2021/11/25 07:01:21;;;;;;;8.45;4.68;;;11.20;80.00;;;;;;5057981;28;20207;-77
2021/11/25 07:03:47;;;;;;;7.15;4.60;;;11.50;77.80;;;;;;5055444;28;20182;-78
2021/11/25 07:06:13;;;;;;;5.32;4.82;;;11.70;76.60;;;;;;5053547;28;20203;-78
2021/11/25 07:08:38;;;;;;;6.00;4.75;;;11.70;75.50;;;;;;5057150;28;20910;-77
2021/11/25 07:11:04;;;;;;;9.68;4.90;;;11.60;74.90;;;;;;5053663;28;20195;-78
2021/11/25 07:13:30;;;;;;;6.22;5.28;;;11.40;74.60;;;;;;5048849;28;20182;-77
2021/11/25 07:15:56;;;;;;;9.32;5.07;;;11.10;74.10;;;;;;5053099;28;20747;-76
2021/11/25 07:18:21;;;;;;;4.72;3.70;;;10.80;75.30;;;;;;5052262;28;20179;-78
2021/11/25 07:20:48;;;;;;;4.53;3.83;;;10.40;74.90;;;;;;5056686;28;20346;-77
2021/11/25 07:23:14;;;;;;;10.50;4.50;;;10.40;76.70;;;;;;5054122;28;20633;-77
2021/11/25 07:25:39;;;;;;;5.00;4.43;;;10.60;77.30;;;;;;5052086;28;20283;-77
2021/11/25 07:28:05;;;;;;;4.93;4.28;;;10.80;77.00;;;;;;5055552;28;20263;-76
2021/11/25 07:30:31;;;;;;;4.57;4.07;;;11.10;76.40;;;;;;5049568;28;20272;-77
2021/11/25 07:32:57;;;;;;;5.05;4.10;;;11.20;75.60;;;;;;5052048;28;20651;-77
2021/11/25 07:35:23;;;;;;;4.43;4.03;;;11.30;74.60;;;;;;5055420;28;20672;-77
2021/11/25 07:37:52;;;;;;;4.93;4.53;;;11.30;74.60;;;;;;5057578;28;20271;-77
2021/11/25 07:40:21;;;;;;;8.35;4.28;;;11.40;74.70;;;;;;5059628;28;20350;-78
2021/11/25 07:42:48;;;;;;;4.72;4.25;;;11.40;74.30;;;;;;5050524;28;20179;-78
2021/11/25 07:45:14;;;;;;;3.92;3.63;;;11.50;74.70;;;;;;5051171;28;20179;-78
2021/11/25 07:47:40;;;;;;;3.97;3.30;;;11.70;74.00;;;;;;5047210;28;20184;-78
2021/11/25 07:50:18;;;;;;;5.32;3.60;;;11.90;73.60;;;;;;5045939;28;20198;-78
2021/11/25 07:52:44;;;;;;;3.53;3.30;;;12.00;73.40;;;;;;5048604;28;20215;-78
2021/11/25 07:55:12;;;;;;;4.40;4.10;;;12.20;73.00;;;;;;5044085;28;20646;-77
2021/11/25 07:57:42;;;;;;;4.30;3.80;;;12.20;72.30;;;;;;5048889;28;20172;-77
2021/11/25 08:00:08;;;;;;;4.15;3.85;;;12.20;72.40;;;;;;5046427;28;20597;-78
2021/11/25 08:02:34;;;;;;;4.93;3.75;;;12.20;71.50;;;;;;5045554;28;20973;-77
2021/11/25 08:05:00;;;;;;;4.38;4.00;;;12.00;71.80;;;;;;5049542;28;20179;-78
2021/11/25 08:07:25;;;;;;;4.75;3.67;;;12.00;71.50;;;;;;5049578;28;20184;-77
2021/11/25 08:09:51;;;;;;;10.52;3.88;;;11.90;72.10;;;;;;5046748;28;20180;-78
2021/11/25 08:12:17;;;;;;;3.85;3.33;;;12.00;72.40;;;;;;5052497;28;20203;-78
2021/11/25 08:14:43;;;;;;;9.07;3.45;;;12.00;72.30;;;;;;5046326;28;20192;-77
2021/11/25 08:17:12;;;;;;;3.47;3.28;;;12.00;72.10;;;;;;5044801;28;20179;-78
2021/11/25 08:19:38;;;;;;;3.67;3.38;;;11.70;70.90;;;;;;5050844;28;20215;-78
2021/11/25 08:22:05;;;;;;;3.55;3.22;;;11.40;71.90;;;;;;5039158;28;20183;-77
2021/11/25 08:24:30;;;;;;;4.93;3.75;;;10.80;72.80;;;;;;5042807;28;20716;-77
2021/11/25 08:26:56;;;;;;;6.88;3.65;;;10.60;73.40;;;;;;5045893;28;20176;-77
2021/11/25 08:29:22;;;;;;;4.07;3.00;;;10.50;74.10;;;;;;5047091;28;20194;-77
2021/11/25 08:31:49;;;;;;;3.17;2.90;;;10.40;74.40;;;;;;5045207;28;20187;-78
2021/11/25 08:34:15;;;;;;;5.50;3.60;;;10.30;74.50;;;;;;5047319;28;20274;-78
2021/11/25 08:36:41;;;;;;;3.25;2.95;;;10.30;75.00;;;;;;5047941;28;20184;-78
2021/11/25 08:39:07;;;;;;;3.42;3.22;;;10.20;75.00;;;;;;5038707;28;20180;-78
2021/11/25 08:41:33;;;;;;;3.47;3.22;;;10.10;74.90;;;;;;5047113;28;20210;-78
2021/11/25 08:43:59;;;;;;;2.95;2.75;;;10.10;75.20;;;;;;5041819;28;20187;-78
2021/11/25 08:46:24;;;;;;;3.40;3.10;;;10.00;75.00;;;;;;5042176;28;20194;-78
2021/11/25 08:48:50;;;;;;;4.10;3.08;;;10.00;75.60;;;;;;5047004;28;20188;-78
2021/11/25 08:51:16;;;;;;;5.05;3.17;;;10.00;75.90;;;;;;5049629;28;20198;-77
2021/11/25 08:53:42;;;;;;;4.10;2.92;;;10.20;75.70;;;;;;5049218;28;20188;-78
2021/11/25 08:56:09;;;;;;;4.38;2.85;;;10.20;74.70;;;;;;5045944;28;20203;-78
2021/11/25 08:58:36;;;;;;;3.10;2.90;;;10.20;74.90;;;;;;5045684;28;20187;-78
2021/11/25 09:01:02;;;;;;;2.75;2.55;;;10.20;74.90;;;;;;5051968;28;20260;-78
2021/11/25 09:03:30;;;;;;;3.55;2.65;;;10.20;74.80;;;;;;5046720;28;20206;-77
2021/11/25 09:05:59;;;;;;;3.90;3.08;;;10.00;74.80;;;;;;5047112;28;20745;-78
2021/11/25 09:08:25;;;;;;;2.72;2.60;;;9.90;75.60;;;;;;5045397;28;20191;-78
2021/11/25 09:10:52;;;;;;;3.08;2.88;;;9.70;74.90;;;;;;5045123;28;20179;-77
2021/11/25 09:13:18;;;;;;;2.92;2.67;;;9.60;76.00;;;;;;5045359;28;20196;-77
2021/11/25 09:15:43;;;;;;;3.53;2.60;;;9.60;76.30;;;;;;5051725;28;20190;-77
2021/11/25 09:18:10;;;;;;;2.97;2.75;;;9.80;76.60;;;;;;5047234;28;20194;-77
2021/11/25 09:20:39;;;;;;;4.63;3.40;;;10.00;76.30;;;;;;5043962;28;20815;-77
2021/11/25 09:23:11;;;;;;;3.33;3.05;;;10.20;75.70;;;;;;5045779;28;20242;-77
2021/11/25 09:25:46;;;;;;;3.30;3.03;;;10.30;75.20;;;;;;5043299;28;20187;-77
2021/11/25 09:28:18;;;;;;;3.15;2.95;;;10.50;75.10;;;;;;5045871;28;20183;-77
2021/11/25 09:30:45;;;;;;;3.03;2.78;;;10.70;74.60;;;;;;5044568;28;20192;-77
2021/11/25 09:33:11;;;;;;;3.65;3.15;;;10.80;74.40;;;;;;5041009;28;20210;-78
2021/11/25 09:35:39;;;;;;;4.70;3.17;;;10.60;73.10;;;;;;5044923;28;20179;-78
2021/11/25 09:38:06;;;;;;;3.50;3.22;;;10.50;73.90;;;;;;5046160;28;20637;-77
2021/11/25 09:40:32;;;;;;;3.80;3.47;;;10.40;74.20;;;;;;5046921;28;20207;-78
2021/11/25 09:43:07;;;;;;;4.38;3.95;;;10.40;74.20;;;;;;5051894;28;20245;-78
2021/11/25 09:45:36;;;;;;;3.25;3.03;;;10.50;74.40;;;;;;5041218;28;20186;-77
2021/11/25 09:48:06;;;;;;;6.22;3.85;;;10.60;74.20;;;;;;5044863;28;20202;-78
2021/11/25 09:50:34;;;;;;;7.30;4.53;;;10.50;74.00;;;;;;5043262;28;20188;-78
2021/11/25 09:53:03;;;;;;;3.80;3.53;;;10.50;73.90;;;;;;5043282;28;20736;-78
2021/11/25 09:55:32;;;;;;;3.58;3.08;;;10.50;74.00;;;;;;5046009;28;20190;-78
2021/11/25 09:57:58;;;;;;;4.65;3.30;;;10.40;74.10;;;;;;5047091;28;20210;-78
2021/11/25 10:00:28;;;;;;;4.10;3.67;;;10.30;74.00;;;;;;5044641;28;20638;-78
2021/11/25 10:02:55;;;;;;;3.33;3.03;;;10.20;74.30;;;;;;5041751;28;20179;-78
2021/11/25 10:05:21;;;;;;;4.40;3.40;;;10.10;74.50;;;;;;5047306;28;20190;-78
2021/11/25 10:07:47;;;;;;;3.67;2.92;;;9.90;74.50;;;;;;5034685;28;20184;-78
2021/11/25 10:10:27;;;;;;;3.63;3.33;;;9.70;75.00;;;;;;5043148;28;20269;-78
2021/11/25 10:13:14;;;;;;;2.77;2.67;;;9.60;75.50;;;;;;5039980;28;20172;-78
2021/11/25 10:15:41;;;;;;;4.60;3.88;;;9.50;76.10;;;;;;5047369;28;20253;-78
2021/11/25 10:18:11;;;;;;;3.33;3.10;;;9.40;76.10;;;;;;5041574;28;20190;-78
2021/11/25 10:20:41;;;;;;;2.63;2.42;;;9.30;76.30;;;;;;5055248;28;20208;-78
2021/11/25 10:23:13;;;;;;;3.13;2.70;;;9.30;76.40;;;;;;5048804;28;21022;-78
2021/11/25 10:25:47;;;;;;;2.50;2.30;;;9.30;76.40;;;;;;5050803;28;20673;-78
2021/11/25 10:28:23;;;;;;;2.80;2.60;;;9.30;76.60;;;;;;5051820;28;20325;-79
2021/11/25 10:30:52;;;;;;;2.83;2.73;;;9.20;76.40;;;;;;5051544;28;20258;-77
2021/11/25 10:33:54;;;;;;;3.23;2.00;;;9.20;76.60;;;;;;5046753;28;20622;-78
2021/11/25 10:36:33;;;;;;;3.28;2.20;;;9.20;76.50;;;;;;5047832;28;20737;-79
2021/11/25 10:41:57;;;;;;;3.20;2.90;;;9.10;76.60;;;;;;5049839;28;20187;-77
2021/11/25 10:44:27;;;;;;;2.10;2.00;;;9.00;76.70;;;;;;5055004;28;20186;-79
2021/11/25 10:47:06;;;;;;;2.40;2.22;;;8.90;76.70;;;;;;5049634;28;20755;-78
2021/11/25 10:49:49;;;;;;;3.43;2.90;;;8.90;77.00;;;;;;5049444;28;20701;-77
2021/11/25 10:52:28;;;;;;;2.87;2.50;;;8.80;77.40;;;;;;5042335;28;20270;-77
2021/11/25 10:54:57;;;;;;;2.40;2.20;;;8.80;77.50;;;;;;5047641;28;20918;-77
2021/11/25 10:57:46;;;;;;;3.27;2.70;;;8.80;77.50;;;;;;5051566;28;20341;-77
2021/11/25 11:00:23;;;;;;;4.57;2.60;;;8.70;77.50;;;;;;5054238;28;20257;-76
2021/11/25 11:03:04;;;;;;;2.30;2.20;;;8.70;77.80;;;;;;5050425;28;20578;-77
2021/11/25 11:05:30;;;;;;;2.97;2.77;;;8.60;78.10;;;;;;5051320;28;20185;-78
2021/11/25 11:08:05;;;;;;;4.27;3.40;;;8.50;78.10;;;;;;5048401;28;20202;-78
2021/11/25 11:10:31;;;;;;;3.00;2.80;;;8.40;78.20;;;;;;5051620;28;20231;-78
2021/11/25 11:15:59;;;;;;;3.03;2.73;;;8.40;79.10;;;;;;5057677;28;20667;-77
2021/11/25 11:18:56;;;;;;;12.87;3.00;;;8.40;79.10;;;;;;5047510;28;20187;-79
2021/11/25 11:21:50;;;;;;;3.43;2.90;;;8.50;79.00;;;;;;5052445;28;20207;-79
2021/11/25 11:24:30;;;;;;;2.60;2.40;;;8.50;78.60;;;;;;5051295;28;20187;-78
2021/11/25 11:27:05;;;;;;;2.83;2.73;;;8.50;78.90;;;;;;5050746;28;20182;-79
2021/11/25 11:29:32;;;;;;;2.60;2.40;;;8.40;78.80;;;;;;5052682;28;20888;-79
2021/11/25 11:32:00;;;;;;;5.03;2.33;;;8.30;78.80;;;;;;5057086;28;20616;-78
2021/11/25 11:34:27;;;;;;;3.13;2.83;;;8.20;79.10;;;;;;5053561;28;20183;-78
2021/11/25 11:36:54;;;;;;;3.40;3.10;;;8.20;79.50;;;;;;5052054;28;20668;-79
2021/11/25 11:39:24;;;;;;;2.80;2.60;;;8.30;79.70;;;;;;5053660;28;20220;-78
2021/11/25 11:41:53;;;;;;;2.23;2.07;;;8.40;79.60;;;;;;5048944;28;20187;-78
2021/11/25 11:44:22;;;;;;;2.90;2.17;;;8.50;79.10;;;;;;5047462;28;20579;-78
2021/11/25 11:46:51;;;;;;;2.17;2.07;;;8.50;79.30;;;;;;5050385;28;20178;-77
2021/11/25 11:49:21;;;;;;;3.00;2.80;;;8.60;79.30;;;;;;5051822;28;20218;-77
2021/11/25 11:52:14;;;;;;;2.53;2.33;;;8.80;79.20;;;;;;5050944;28;20188;-78
2021/11/25 11:54:56;;;;;;;2.53;2.43;;;9.00;79.30;;;;;;5046351;28;20272;-75
2021/11/25 11:57:28;;;;;;;3.17;2.93;;;9.20;77.80;;;;;;5045938;28;20261;-77
2021/11/25 11:59:55;;;;;;;3.53;3.23;;;9.30;77.60;;;;;;5051354;28;20206;-77
2021/11/25 12:02:57;;;;;;;2.80;2.60;;;9.40;76.80;;;;;;5044967;28;20550;-79
2021/11/25 12:05:43;;;;;;;1.87;1.77;;;9.40;77.50;;;;;;5019245;28;20618;-79
2021/11/25 12:08:20;;;;;;;2.60;2.40;;;9.50;77.70;;;;;;5010255;28;20192;-80
2021/11/25 12:11:01;;;;;;;2.43;2.33;;;9.60;77.20;;;;;;5020438;28;20215;-79
2021/11/25 12:13:29;;;;;;;2.22;2.03;;;9.90;77.40;;;;;;5022181;28;20200;-79
2021/11/25 12:16:16;;;;;;;2.93;2.73;;;10.00;75.10;;;;;;5023003;28;20211;-80
2021/11/25 12:18:54;;;;;;;4.80;3.30;;;9.90;75.40;;;;;;5022791;28;20188;-77
2021/11/25 12:21:45;;;;;;;2.53;2.33;;;10.10;76.00;;;;;;5022654;28;20214;-77
2021/11/25 12:24:43;;;;;;;3.13;2.93;;;10.30;76.30;;;;;;5022329;28;20187;-77
2021/11/25 12:27:35;;;;;;;3.53;2.90;;;10.70;75.40;;;;;;5021659;28;20203;-76
2021/11/25 12:30:05;;;;;;;3.20;2.95;;;11.30;74.20;;;;;;5021476;28;20187;-82
2021/11/25 12:35:11;;;;;;;3.13;2.65;;;11.90;72.10;;;;;;5021616;28;20649;-78
2021/11/25 12:38:05;;;;;;;3.28;3.00;;;12.00;72.10;;;;;;5021245;28;20190;-76
2021/11/25 12:40:38;;;;;;;3.25;2.95;;;12.20;72.80;;;;;;5051524;28;20227;-75
2021/11/25 12:43:09;;;;;;;5.70;2.97;;;12.40;70.60;;;;;;5050591;28;20183;-79
2021/11/25 12:45:35;;;;;;;3.42;3.13;;;12.30;69.60;;;;;;5050402;28;20176;-77
2021/11/25 12:48:25;;;;;;;3.63;3.05;;;12.00;70.50;;;;;;5050218;28;20228;-75
2021/11/25 12:50:59;;;;;;;3.05;2.95;;;12.00;70.60;;;;;;5052473;28;20235;-74
2021/11/25 12:53:35;;;;;;;3.50;2.78;;;12.00;71.00;;;;;;5048930;28;20241;-78
2021/11/25 12:56:23;;;;;;;3.08;2.88;;;12.00;70.20;;;;;;5053582;28;20603;-76
2021/11/25 12:58:59;;;;;;;2.70;2.55;;;11.80;70.70;;;;;;5053916;28;20210;-78
2021/11/25 13:01:48;;;;;;;2.92;2.70;;;11.70;71.80;;;;;;5051760;28;20238;-78
2021/11/25 13:04:23;;;;;;;3.30;3.00;;;11.70;71.80;;;;;;5048900;28;20212;-77
2021/11/25 13:06:57;;;;;;;3.08;2.63;;;11.60;71.10;;;;;;5046195;28;20197;-78
2021/11/25 13:09:25;;;;;;;3.65;3.35;;;11.30;71.70;;;;;;5045337;28;20183;-77
2021/11/25 13:11:52;;;;;;;3.35;2.90;;;11.10;72.50;;;;;;5046895;28;20192;-78
2021/11/25 13:14:23;;;;;;;5.53;3.45;;;11.00;72.50;;;;;;5051111;28;20816;-77
2021/11/25 13:16:53;;;;;;;3.15;2.95;;;11.10;73.00;;;;;;5046787;28;20287;-79